createdAt,value
2019-02-20T05:01:42.502Z,15.77
2019-02-20T05:04:04.964Z,16.00
2019-02-20T05:06:27.405Z,16.87
2019-02-20T05:08:49.934Z,16.87
2019-02-20T05:11:12.457Z,17.30
2019-02-20T05:13:35.007Z,16.93
2019-02-20T06:01:49.979Z,15.57
2019-02-20T06:04:12.534Z,15.40
2019-02-20T06:06:35.916Z,15.87
2019-02-20T06:08:58.462Z,14.83
2019-02-20T06:11:20.891Z,16.27
2019-02-20T06:13:44.626Z,17.80
2019-02-20T07:01:43.251Z,26.80
2019-02-20T07:04:05.927Z,26.10
2019-02-20T07:07:00.739Z,25.47
2019-02-20T07:09:59.850Z,23.80
2019-02-20T07:12:49.618Z,24.10
2019-02-20T08:02:16.462Z,21.17
2019-02-20T08:04:51.193Z,20.87
2019-02-20T08:07:26.312Z,21.03
2019-02-20T08:10:01.670Z,19.27
2019-02-20T08:12:37.798Z,21.03
2019-02-20T09:02:35.291Z,19.10
2019-02-20T09:05:10.299Z,18.77
2019-02-20T09:07:45.503Z,19.03
2019-02-20T09:10:20.893Z,19.80
2019-02-20T09:12:56.072Z,18.50
2019-02-20T10:00:40.388Z,16.27
2019-02-20T10:03:02.847Z,16.40
2019-02-20T10:05:25.375Z,16.23
2019-02-20T10:07:47.861Z,15.97
2019-02-20T10:10:10.421Z,15.67
2019-02-20T10:12:32.864Z,14.10
2019-02-20T10:14:55.524Z,13.13
2019-02-20T10:52:11.567Z,12.43
2019-02-20T10:54:46.635Z,12.60
2019-02-20T10:57:21.667Z,12.83
2019-02-20T10:59:57.015Z,12.03
2019-02-20T11:02:32.113Z,10.77
2019-02-20T11:05:07.166Z,10.93
2019-02-20T11:07:42.284Z,9.97
2019-02-20T11:10:17.191Z,9.73
2019-02-20T11:12:52.439Z,8.73
2019-02-20T12:02:47.690Z,4.63
2019-02-20T12:05:22.961Z,4.87
2019-02-20T12:07:58.169Z,8.13
2019-02-20T12:10:33.215Z,5.97
2019-02-20T12:13:08.507Z,4.93
2019-02-20T13:00:43.770Z,5.30
2019-02-20T13:03:19.063Z,5.93
2019-02-20T13:05:54.065Z,5.30
2019-02-20T13:08:29.307Z,5.37
2019-02-20T13:11:04.327Z,5.13
2019-02-20T13:13:39.487Z,5.23
2019-02-20T13:19:05.447Z,4.37
2019-02-20T13:21:40.916Z,4.50
2019-02-20T13:24:16.330Z,5.00
2019-02-20T13:26:53.166Z,4.60
2019-02-20T13:29:28.431Z,4.83
2019-02-20T13:32:03.626Z,5.20
2019-02-20T13:34:39.043Z,5.60
2019-02-20T13:37:14.111Z,5.87
2019-02-20T14:03:26.411Z,7.00
2019-02-20T14:12:03.063Z,7.05
2019-02-20T14:14:25.730Z,5.80
2019-02-20T14:49:14.875Z,6.60
2019-02-20T14:51:37.426Z,6.27
2019-02-20T14:53:59.995Z,6.53
2019-02-20T14:56:22.797Z,6.17
2019-02-20T14:58:57.635Z,6.67
2019-02-20T15:01:32.976Z,6.60
2019-02-20T15:04:08.175Z,6.20
2019-02-20T15:06:43.354Z,6.43
2019-02-20T15:09:18.603Z,6.23
2019-02-20T15:11:53.814Z,6.63
2019-02-20T15:14:29.342Z,6.13
2019-02-20T16:00:16.103Z,7.73
2019-02-20T16:02:51.616Z,7.83
2019-02-20T16:05:26.694Z,8.00
2019-02-20T16:08:01.635Z,8.17
2019-02-20T16:10:36.779Z,7.90
2019-02-20T16:13:11.859Z,8.10
2019-02-20T16:49:00.707Z,9.80
2019-02-20T16:51:23.245Z,10.37
2019-02-20T16:53:45.818Z,9.97
2019-02-20T16:56:27.811Z,10.30
2019-02-20T16:59:05.103Z,10.47
2019-02-20T17:01:42.710Z,10.10
2019-02-20T17:04:17.745Z,11.53
2019-02-20T17:06:53.988Z,10.60
2019-02-20T17:09:29.175Z,10.90
2019-02-20T17:12:04.047Z,11.77
2019-02-20T17:14:39.143Z,11.83
2019-02-20T17:17:15.545Z,12.03
2019-02-20T17:19:50.424Z,13.17
2019-02-20T17:22:25.637Z,12.60
2019-02-20T17:25:01.981Z,12.67
2019-02-20T17:27:38.617Z,12.77
2019-02-20T17:30:13.638Z,11.57
2019-02-20T17:35:32.632Z,11.33
2019-02-20T17:38:09.000Z,9.93
2019-02-20T17:40:44.267Z,10.13
2019-02-20T17:43:19.620Z,14.90
2019-02-20T17:45:54.791Z,14.60
2019-02-20T17:48:31.499Z,16.57
2019-02-20T17:51:06.675Z,13.50
2019-02-20T17:53:45.701Z,14.50
2019-02-20T17:56:21.334Z,14.83
2019-02-20T17:58:57.509Z,15.27
2019-02-20T18:01:34.357Z,13.40
2019-02-20T18:04:10.039Z,14.13
2019-02-20T18:06:44.925Z,15.23
2019-02-20T18:09:20.337Z,16.07
2019-02-20T18:11:55.653Z,15.67
2019-02-20T18:20:08.440Z,15.37
2019-02-20T18:22:43.844Z,13.73
2019-02-20T18:25:20.035Z,14.90
2019-02-20T18:27:59.562Z,13.77
2019-02-20T18:51:22.301Z,13.73
2019-02-20T18:53:57.915Z,14.37
2019-02-20T18:56:34.189Z,14.27
2019-02-20T19:04:57.973Z,18.63
2019-02-20T19:07:34.129Z,23.40
2019-02-20T19:10:18.864Z,24.60
2019-02-20T19:12:54.340Z,20.73
2019-02-20T20:00:13.835Z,19.40
2019-02-20T20:02:49.749Z,13.90
2019-02-20T20:05:28.872Z,13.47
2019-02-20T20:08:04.535Z,15.83
2019-02-20T20:10:40.897Z,17.23
2019-02-20T20:13:16.858Z,18.87
2019-02-20T21:00:42.455Z,18.00
2019-02-20T21:03:26.918Z,19.43
2019-02-20T21:06:02.705Z,21.87
2019-02-20T21:08:37.187Z,19.63
2019-02-20T21:11:12.121Z,20.17
2019-02-20T21:13:47.142Z,19.67
